Aérodrome :







RETROUVEZ-NOUS SUR...

 
LOGIN :

S'inscrire | Disclaimer

   EN    FR    IT 

 









Légende :    VFR   VFR Marginal   IFR   IFR Intensif   IFR Très Intensif
Visi : 
Plafond : 
>= 8 km
>= 3000ft
5 à 8 km
1000 à 3000 ft
1500m à 5 km
500 à 1000 ft
800 à 1500m
200 à 500 ft
< 800m
< 200 ft
Symboles :   Orages  Brouillard  Fortes neiges  Fortes précipitations  Vent > 20 kt







- Altitude de l'aérodrome : 27 ft
- Code IATA : FSP
- Voir les cartes d'approche


LFVP - St Pierre et Miquelon

DERNIER METAR :
  • 251400Z 09023G33KT 4000 -RA BR OVC005 01/00 Q1012 NOSIG

METARs EXPIRÉS :
  • 251300Z 08022KT 4500 -RA BR OVC006 00/00 Q1013 NOSIG
  • 251200Z 08022KT 3000 -RA BR OVC006 00/00 Q1013 NOSIG

TAF TAF LFVP
Valide du 25 à 12h jusqu'au 25 à 21h UTC


251100Z 2512/2521 08025G35KT 4000 RA BR BKN004 OVC050
PROB30
TEMPO 2512/2515 -RASN
FIR CZQX / Amérique du Nord



MET'MAP, la Météo Aéronautique d'un coup d'oeil ! - Copyright ORBIFLY Décembre 2007 - Disclaimer

ORBIFLY MET'MAP TEAM :

Programmation & Développement : Alexandra Zaïnal
Conception & Développement : Baudouin d'Aumeries
Co-Programmation & Développement : Marc-Olivier Méhu
Soutien technique & logistique : Manuel Goepfert

Contact : metmap@orbifly.com




SOURCES & CREDITS :

   NOAA